createdAt,value
2023-01-17T00:01:48.862Z,80.31
2023-01-17T00:04:33.912Z,80.41
2023-01-17T00:07:20.752Z,80.67
2023-01-17T00:09:54.556Z,80.49
2023-01-17T00:12:23.727Z,80.33
2023-01-17T00:14:53.341Z,78.86
2023-01-17T00:17:21.208Z,81.03
2023-01-17T00:20:06.271Z,79.36
2023-01-17T00:22:53.570Z,77.96
2023-01-17T00:25:38.050Z,77.99
2023-01-17T00:28:05.766Z,78.53
2023-01-17T00:30:33.025Z,77.83
2023-01-17T00:33:00.216Z,76.90
2023-01-17T00:35:28.540Z,76.98
2023-01-17T00:38:04.398Z,77.68
2023-01-17T00:40:31.195Z,77.26
2023-01-17T00:43:16.814Z,76.90
2023-01-17T00:46:03.318Z,77.04
2023-01-17T00:48:48.977Z,76.76
2023-01-17T00:51:34.267Z,79.83
2023-01-17T00:54:21.079Z,82.11
2023-01-17T00:57:06.614Z,82.78
2023-01-17T00:59:51.831Z,83.75
2023-01-17T01:02:37.329Z,88.50
2023-01-17T01:05:23.580Z,100.00
2023-01-17T01:08:09.147Z,100.00
2023-01-17T01:10:55.888Z,100.00
2023-01-17T01:13:42.232Z,100.00
2023-01-17T01:16:27.795Z,100.00
2023-01-17T01:19:13.271Z,100.00
2023-01-17T01:21:58.766Z,100.00
2023-01-17T01:24:44.001Z,100.00
2023-01-17T01:27:31.014Z,100.00
2023-01-17T01:30:16.595Z,100.00
2023-01-17T01:33:01.876Z,100.00
2023-01-17T01:35:29.920Z,100.00
2023-01-17T01:37:57.815Z,100.00
2023-01-17T01:40:25.695Z,100.00
2023-01-17T01:42:56.796Z,100.00
2023-01-17T01:45:26.716Z,100.00
2023-01-17T01:47:58.312Z,100.00
2023-01-17T01:50:27.407Z,100.00
2023-01-17T01:53:00.059Z,100.00
2023-01-17T01:55:32.400Z,100.00
2023-01-17T01:58:09.733Z,100.00
2023-01-17T02:00:40.836Z,100.00
2023-01-17T02:03:12.523Z,100.00
2023-01-17T02:05:42.476Z,100.00
2023-01-17T02:08:14.073Z,100.00
2023-01-17T02:10:43.943Z,100.00
2023-01-17T02:13:16.184Z,100.00
2023-01-17T02:15:57.974Z,100.00
2023-01-17T02:18:36.765Z,100.00
2023-01-17T02:21:22.315Z,100.00
2023-01-17T02:24:33.657Z,100.00
2023-01-17T02:27:06.336Z,100.00
2023-01-17T02:33:12.706Z,100.00
2023-01-17T02:35:49.308Z,100.00
2023-01-17T02:38:31.520Z,100.00
2023-01-17T02:41:05.231Z,100.00
2023-01-17T02:43:33.955Z,100.00
2023-01-17T02:46:01.684Z,100.00
2023-01-17T02:48:33.957Z,100.00
2023-01-17T02:51:28.729Z,100.00
2023-01-17T02:54:12.563Z,100.00
2023-01-17T02:56:50.576Z,100.00
2023-01-17T02:59:34.524Z,100.00
2023-01-17T03:02:11.920Z,100.00
2023-01-17T03:04:48.077Z,100.00
2023-01-17T03:07:20.673Z,100.00
2023-01-17T03:09:53.489Z,100.00
2023-01-17T03:12:21.702Z,100.00
2023-01-17T03:14:49.510Z,100.00
2023-01-17T03:17:17.521Z,100.00
2023-01-17T03:19:46.675Z,100.00
2023-01-17T03:22:14.415Z,100.00
2023-01-17T03:24:42.167Z,100.00
2023-01-17T03:27:11.335Z,100.00
2023-01-17T03:29:39.164Z,100.00
2023-01-17T03:32:07.349Z,100.00
2023-01-17T03:34:35.145Z,100.00
2023-01-17T03:37:04.472Z,100.00
2023-01-17T03:39:32.298Z,100.00
2023-01-17T03:42:00.138Z,100.00
2023-01-17T03:44:27.870Z,100.00
2023-01-17T03:46:55.615Z,100.00
2023-01-17T03:49:23.377Z,100.00
2023-01-17T03:51:51.162Z,100.00
2023-01-17T03:54:20.265Z,100.00
2023-01-17T03:56:47.997Z,100.00
2023-01-17T03:59:15.712Z,100.00
2023-01-17T04:01:43.609Z,100.00
2023-01-17T04:04:11.378Z,100.00
2023-01-17T04:06:39.119Z,100.00
2023-01-17T04:09:06.872Z,100.00
2023-01-17T04:11:36.072Z,100.00
2023-01-17T04:14:03.944Z,100.00
2023-01-17T04:16:33.166Z,100.00
2023-01-17T04:19:01.016Z,100.00
2023-01-17T04:21:28.886Z,100.00
2023-01-17T04:23:56.736Z,100.00
2023-01-17T04:26:24.556Z,100.00
2023-01-17T04:28:53.772Z,100.00
2023-01-17T04:31:21.719Z,100.00
2023-01-17T04:33:49.481Z,100.00
2023-01-17T04:36:17.974Z,100.00
2023-01-17T04:38:45.791Z,100.00
2023-01-17T04:41:13.599Z,100.00
2023-01-17T04:43:41.360Z,100.00
2023-01-17T04:46:11.182Z,100.00
2023-01-17T04:48:39.276Z,100.00
2023-01-17T04:51:07.389Z,100.00
2023-01-17T04:53:35.225Z,100.00
2023-01-17T04:56:03.073Z,100.00
2023-01-17T04:58:31.339Z,100.00
2023-01-17T05:01:02.870Z,100.00
2023-01-17T05:03:32.604Z,100.00
2023-01-17T05:06:00.585Z,100.00
2023-01-17T05:08:28.767Z,100.00
2023-01-17T05:10:56.554Z,100.00
2023-01-17T05:13:24.382Z,100.00
2023-01-17T05:15:52.387Z,100.00
2023-01-17T05:18:20.584Z,100.00
2023-01-17T05:20:57.595Z,100.00
2023-01-17T05:23:25.327Z,100.00
2023-01-17T05:25:53.067Z,100.00
2023-01-17T05:28:20.897Z,100.00
2023-01-17T05:30:48.787Z,100.00
2023-01-17T05:33:16.578Z,100.00
2023-01-17T05:35:44.460Z,100.00
2023-01-17T05:38:13.590Z,100.00
2023-01-17T05:40:41.328Z,100.00
2023-01-17T05:43:10.047Z,100.00
2023-01-17T05:45:38.010Z,100.00
2023-01-17T05:48:06.596Z,100.00
2023-01-17T05:50:36.537Z,100.00
2023-01-17T05:53:07.506Z,100.00
2023-01-17T05:55:37.864Z,100.00
2023-01-17T05:58:07.258Z,100.00
2023-01-17T06:00:34.959Z,100.00
2023-01-17T06:03:02.995Z,100.00
2023-01-17T06:05:31.872Z,100.00
2023-01-17T06:07:59.637Z,100.00
2023-01-17T06:10:28.233Z,100.00
2023-01-17T06:13:05.790Z,100.00
2023-01-17T06:15:34.014Z,100.00
2023-01-17T06:18:05.919Z,100.00
2023-01-17T06:20:34.321Z,100.00
2023-01-17T06:23:04.234Z,100.00
2023-01-17T06:25:36.432Z,100.00
2023-01-17T06:28:06.179Z,100.00
2023-01-17T06:30:34.482Z,100.00
2023-01-17T06:33:02.379Z,100.00
2023-01-17T06:35:30.490Z,100.00
2023-01-17T06:37:59.754Z,100.00
2023-01-17T06:40:28.862Z,100.00
2023-01-17T06:43:01.059Z,100.00
2023-01-17T06:45:30.673Z,100.00
2023-01-17T06:47:59.219Z,100.00
2023-01-17T06:50:27.399Z,100.00
2023-01-17T06:52:57.315Z,100.00
2023-01-17T06:55:25.927Z,100.00
2023-01-17T06:57:54.621Z,100.00
2023-01-17T07:00:23.148Z,100.00
2023-01-17T07:02:52.884Z,100.00
2023-01-17T07:05:20.978Z,100.00
2023-01-17T07:07:49.229Z,100.00
2023-01-17T07:10:17.640Z,100.00
2023-01-17T07:12:45.446Z,100.00
2023-01-17T07:15:14.009Z,100.00
2023-01-17T07:17:41.883Z,100.00
2023-01-17T07:20:12.059Z,100.00
2023-01-17T07:22:39.889Z,100.00
2023-01-17T07:25:08.556Z,100.00
2023-01-17T07:27:36.318Z,100.00
2023-01-17T07:30:04.277Z,100.00
2023-01-17T07:32:32.139Z,100.00
2023-01-17T07:34:59.923Z,100.00
2023-01-17T07:37:29.056Z,100.00
2023-01-17T07:39:56.943Z,100.00
2023-01-17T07:42:24.776Z,100.00
2023-01-17T07:44:52.805Z,100.00
2023-01-17T07:47:21.065Z,100.00
2023-01-17T07:49:48.811Z,100.00
2023-01-17T07:52:18.212Z,100.00
2023-01-17T07:54:47.588Z,100.00
2023-01-17T07:57:15.454Z,100.00
2023-01-17T07:59:43.295Z,100.00
2023-01-17T08:02:18.579Z,100.00
2023-01-17T08:04:46.407Z,100.00
2023-01-17T08:07:14.519Z,100.00
2023-01-17T08:09:43.100Z,99.96
2023-01-17T08:12:12.211Z,99.26
2023-01-17T08:14:39.975Z,99.52
2023-01-17T08:17:07.782Z,100.00
2023-01-17T08:19:35.621Z,100.00
2023-01-17T08:22:03.423Z,99.25
2023-01-17T08:24:31.263Z,98.41
2023-01-17T08:26:59.037Z,97.52
2023-01-17T08:29:28.254Z,96.73
2023-01-17T08:31:56.309Z,94.75
2023-01-17T08:34:24.094Z,93.33
2023-01-17T08:36:53.888Z,91.94
2023-01-17T08:39:22.395Z,93.55
2023-01-17T08:41:50.162Z,89.64
2023-01-17T08:44:19.884Z,90.79
2023-01-17T08:46:49.038Z,93.72
2023-01-17T08:49:16.819Z,93.74
2023-01-17T08:51:44.545Z,92.29
2023-01-17T08:54:15.044Z,91.82
2023-01-17T08:56:43.763Z,90.76
2023-01-17T08:59:12.374Z,94.19
2023-01-17T09:01:41.743Z,92.29
2023-01-17T09:04:11.968Z,93.16
2023-01-17T09:06:41.029Z,93.74
2023-01-17T09:09:11.025Z,94.05
2023-01-17T09:11:39.448Z,94.26
2023-01-17T09:14:07.319Z,93.23
2023-01-17T09:16:35.417Z,94.24
2023-01-17T09:19:03.262Z,93.24
2023-01-17T09:21:32.549Z,89.27
2023-01-17T09:24:00.368Z,90.53
2023-01-17T09:26:29.961Z,92.33
2023-01-17T09:28:58.689Z,92.82
2023-01-17T09:31:27.976Z,93.18
2023-01-17T09:33:57.388Z,91.75
2023-01-17T09:36:28.714Z,92.86
2023-01-17T09:38:59.069Z,92.74
2023-01-17T09:41:29.592Z,93.21
2023-01-17T09:44:04.120Z,92.07
2023-01-17T09:46:37.861Z,91.85
2023-01-17T09:49:09.617Z,89.72
2023-01-17T09:51:37.977Z,87.95
2023-01-17T09:54:07.269Z,87.92
2023-01-17T09:56:42.247Z,86.31
2023-01-17T09:59:33.071Z,85.79
2023-01-17T10:02:18.822Z,85.27
2023-01-17T10:05:03.764Z,84.54
2023-01-17T10:07:42.804Z,82.61
2023-01-17T10:10:29.614Z,83.14
2023-01-17T10:13:04.967Z,79.12
2023-01-17T10:15:45.691Z,76.00
2023-01-17T10:18:44.432Z,73.74
2023-01-17T10:21:23.335Z,73.73
2023-01-17T10:24:16.611Z,76.26
2023-01-17T10:26:49.875Z,76.41
2023-01-17T10:29:20.275Z,77.18
2023-01-17T10:31:55.255Z,75.26
2023-01-17T10:34:29.305Z,75.66
2023-01-17T10:37:02.908Z,75.21
2023-01-17T10:39:32.123Z,73.02
2023-01-17T10:42:08.439Z,73.64
2023-01-17T10:44:41.828Z,73.28
2023-01-17T10:47:19.277Z,73.10
2023-01-17T10:49:51.925Z,72.78
2023-01-17T10:52:28.962Z,72.54
2023-01-17T10:55:11.046Z,74.24
2023-01-17T10:57:43.314Z,73.82
2023-01-17T11:00:31.977Z,72.73
2023-01-17T11:03:02.023Z,72.93
2023-01-17T11:05:32.294Z,74.24
2023-01-17T11:08:02.217Z,74.36
2023-01-17T11:10:54.000Z,72.03
2023-01-17T11:13:27.416Z,70.45
2023-01-17T11:15:57.910Z,71.65
2023-01-17T11:18:28.689Z,71.83
2023-01-17T11:21:12.810Z,72.61
2023-01-17T11:23:43.105Z,72.46
2023-01-17T11:26:13.798Z,72.11
2023-01-17T11:28:43.130Z,72.20
2023-01-17T11:31:26.880Z,72.64
2023-01-17T11:34:10.363Z,71.49
2023-01-17T11:36:38.267Z,71.16
2023-01-17T11:39:19.577Z,70.41
2023-01-17T11:41:48.765Z,71.25
2023-01-17T11:44:26.798Z,70.55
2023-01-17T11:47:16.978Z,71.98
2023-01-17T11:49:46.901Z,71.33
2023-01-17T11:52:23.366Z,71.04
2023-01-17T11:54:53.819Z,70.54
2023-01-17T11:57:25.714Z,68.95
2023-01-17T12:00:04.646Z,68.38
2023-01-17T12:02:56.225Z,68.09
2023-01-17T12:05:41.024Z,68.69
2023-01-17T12:08:18.948Z,65.56
2023-01-17T12:10:57.053Z,64.52
2023-01-17T12:13:57.511Z,65.26
2023-01-17T12:16:44.756Z,64.51
2023-01-17T12:19:36.615Z,62.79
2023-01-17T12:22:22.525Z,61.74
2023-01-17T12:25:07.210Z,59.79
2023-01-17T12:27:45.344Z,59.09
2023-01-17T12:30:26.124Z,60.34
2023-01-17T12:33:12.080Z,61.09
2023-01-17T12:35:46.228Z,61.37
2023-01-17T12:38:31.700Z,62.27
2023-01-17T12:41:07.234Z,62.55
2023-01-17T12:43:37.985Z,62.90
2023-01-17T12:46:13.154Z,64.53
2023-01-17T12:48:42.480Z,64.22
2023-01-17T12:51:17.975Z,64.20
2023-01-17T12:53:51.853Z,63.90
2023-01-17T12:56:25.608Z,64.49
2023-01-17T12:58:56.861Z,64.30
2023-01-17T13:01:30.394Z,65.45
2023-01-17T13:04:17.833Z,65.54
2023-01-17T13:07:01.632Z,65.05
2023-01-17T13:09:34.207Z,64.53
2023-01-17T13:12:06.105Z,62.87
2023-01-17T13:14:34.452Z,63.25
2023-01-17T13:17:21.754Z,64.56
2023-01-17T13:19:58.999Z,61.74
2023-01-17T13:22:27.823Z,58.64
2023-01-17T13:25:03.880Z,60.15
2023-01-17T13:28:02.936Z,60.33
2023-01-17T13:30:56.979Z,60.80
2023-01-17T13:33:36.040Z,59.87
2023-01-17T13:36:20.314Z,60.65
2023-01-17T13:39:08.762Z,61.21
2023-01-17T13:41:48.382Z,61.46
2023-01-17T13:44:25.426Z,60.73
2023-01-17T13:46:58.714Z,62.63
2023-01-17T13:49:35.208Z,62.75
2023-01-17T13:52:09.660Z,63.11
2023-01-17T13:54:46.109Z,62.93
2023-01-17T13:57:42.101Z,62.99
2023-01-17T14:00:58.913Z,62.47
2023-01-17T14:04:12.483Z,61.98
2023-01-17T14:06:43.806Z,63.11
2023-01-17T14:09:20.338Z,62.86
2023-01-17T14:11:58.382Z,63.74
2023-01-17T14:14:51.958Z,64.02
2023-01-17T14:17:51.561Z,63.71
2023-01-17T14:20:49.244Z,64.44
2023-01-17T14:23:39.486Z,64.60
2023-01-17T14:26:46.956Z,63.29
2023-01-17T14:29:52.429Z,63.22
2023-01-17T14:32:23.143Z,62.82
2023-01-17T14:34:52.801Z,63.40
2023-01-17T14:37:46.520Z,63.75
2023-01-17T14:40:20.460Z,64.37
2023-01-17T14:42:55.493Z,65.54
2023-01-17T14:45:28.520Z,63.70
2023-01-17T14:47:58.777Z,62.64
2023-01-17T14:50:29.279Z,63.89
2023-01-17T14:53:28.197Z,64.51
2023-01-17T14:55:59.632Z,64.23
2023-01-17T14:58:31.026Z,64.85
2023-01-17T15:01:02.591Z,63.61
2023-01-17T15:03:34.583Z,64.76
2023-01-17T15:06:11.751Z,64.49
2023-01-17T15:08:40.265Z,62.68
2023-01-17T15:11:12.096Z,63.54
2023-01-17T15:13:45.734Z,63.62
2023-01-17T15:16:24.126Z,64.65
2023-01-17T15:18:52.639Z,64.86
2023-01-17T15:21:22.309Z,64.94
2023-01-17T15:23:53.774Z,66.33
2023-01-17T15:26:24.371Z,65.33
2023-01-17T15:28:54.439Z,65.29
2023-01-17T15:31:25.738Z,64.70
2023-01-17T15:33:57.360Z,64.90
2023-01-17T15:36:33.039Z,65.21
2023-01-17T15:39:04.371Z,64.97
2023-01-17T15:41:35.977Z,66.86
2023-01-17T15:44:06.532Z,67.62
2023-01-17T15:46:42.856Z,67.14
2023-01-17T15:49:19.557Z,66.59
2023-01-17T15:51:50.958Z,66.62
2023-01-17T15:54:40.505Z,66.77
2023-01-17T15:57:23.548Z,67.14
2023-01-17T15:59:56.750Z,66.76
2023-01-17T16:02:30.513Z,68.16
2023-01-17T16:04:58.698Z,67.51
2023-01-17T16:07:34.986Z,67.81
2023-01-17T16:10:09.078Z,67.93
2023-01-17T16:12:36.893Z,69.42
2023-01-17T16:15:12.684Z,68.21
2023-01-17T16:17:42.632Z,67.40
2023-01-17T16:20:16.030Z,68.24
2023-01-17T16:22:44.728Z,67.84
2023-01-17T16:25:17.873Z,69.01
2023-01-17T16:27:46.198Z,68.43
2023-01-17T16:30:17.643Z,68.58
2023-01-17T16:32:46.878Z,68.84
2023-01-17T16:35:18.949Z,68.94
2023-01-17T16:37:50.235Z,69.83
2023-01-17T16:40:18.651Z,69.93
2023-01-17T16:42:47.088Z,69.64
2023-01-17T16:45:17.172Z,70.05
2023-01-17T16:47:46.564Z,70.05
2023-01-17T16:50:16.468Z,69.44
2023-01-17T16:52:44.458Z,69.67
2023-01-17T16:55:15.086Z,69.95
2023-01-17T16:57:43.001Z,70.63
2023-01-17T17:00:13.123Z,70.64
2023-01-17T17:02:42.382Z,71.10
2023-01-17T17:05:11.382Z,69.96
2023-01-17T17:07:42.973Z,70.36
2023-01-17T17:10:11.491Z,69.32
2023-01-17T17:12:39.309Z,70.09
2023-01-17T17:15:08.135Z,71.57
2023-01-17T17:17:36.906Z,69.42
2023-01-17T17:20:09.622Z,70.40
2023-01-17T17:22:37.525Z,70.63
2023-01-17T17:25:06.318Z,70.50
2023-01-17T17:27:34.160Z,68.42
2023-01-17T17:30:02.006Z,68.55
2023-01-17T17:32:30.882Z,68.47
2023-01-17T17:34:58.640Z,69.45
2023-01-17T17:37:28.928Z,69.30
2023-01-17T17:39:56.955Z,68.35
2023-01-17T17:42:25.564Z,68.33
2023-01-17T17:44:53.623Z,69.07
2023-01-17T17:47:21.464Z,69.36
2023-01-17T17:49:49.218Z,69.67
2023-01-17T17:52:17.082Z,71.62
2023-01-17T17:54:46.161Z,70.96
2023-01-17T17:57:13.866Z,72.58
2023-01-17T17:59:41.621Z,72.90
2023-01-17T18:02:11.553Z,72.83
2023-01-17T18:04:39.461Z,72.76
2023-01-17T18:07:07.276Z,72.83
2023-01-17T18:09:35.141Z,74.00
2023-01-17T18:12:04.339Z,74.87
2023-01-17T18:14:32.363Z,75.28
2023-01-17T18:17:00.096Z,74.16
2023-01-17T18:19:27.979Z,73.61
2023-01-17T18:21:55.809Z,74.63
2023-01-17T18:24:25.247Z,73.64
2023-01-17T18:26:55.930Z,74.95
2023-01-17T18:29:26.810Z,74.64
2023-01-17T18:31:55.403Z,75.36
2023-01-17T18:34:24.655Z,74.72
2023-01-17T18:36:53.096Z,74.74
2023-01-17T18:39:22.025Z,73.97
2023-01-17T18:41:50.062Z,75.09
2023-01-17T18:44:21.740Z,76.53
2023-01-17T18:46:51.508Z,76.90
2023-01-17T18:49:19.510Z,77.38
2023-01-17T18:51:50.584Z,77.81
2023-01-17T18:54:19.792Z,77.65
2023-01-17T18:56:47.843Z,77.68
2023-01-17T18:59:18.194Z,76.73
2023-01-17T19:01:46.250Z,77.89
2023-01-17T19:04:17.204Z,78.64
2023-01-17T19:06:46.905Z,79.21
2023-01-17T19:09:16.355Z,78.57
2023-01-17T19:11:45.096Z,79.78
2023-01-17T19:14:14.364Z,79.86
2023-01-17T19:16:42.960Z,78.95
2023-01-17T19:19:13.044Z,81.15
2023-01-17T19:21:42.268Z,79.89
2023-01-17T19:24:12.979Z,79.63
2023-01-17T19:26:40.978Z,79.28
2023-01-17T19:29:08.798Z,78.11
2023-01-17T19:31:42.253Z,78.11
2023-01-17T19:34:10.558Z,78.50
2023-01-17T19:36:39.211Z,77.97
2023-01-17T19:39:10.454Z,78.90
2023-01-17T19:41:41.987Z,79.69
2023-01-17T19:44:11.767Z,78.96
2023-01-17T19:46:39.848Z,78.95
2023-01-17T19:49:09.760Z,79.58
2023-01-17T19:51:39.374Z,79.95
2023-01-17T19:54:09.028Z,80.89
2023-01-17T19:56:36.844Z,80.42
2023-01-17T19:59:04.696Z,80.76
2023-01-17T20:01:34.461Z,80.56
2023-01-17T20:04:03.567Z,81.56
2023-01-17T20:06:33.433Z,81.11
2023-01-17T20:09:01.626Z,80.19
2023-01-17T20:11:30.731Z,82.32
2023-01-17T20:13:59.940Z,88.84
2023-01-17T20:16:30.044Z,84.03
2023-01-17T20:18:58.297Z,85.44
2023-01-17T20:21:27.812Z,84.83
2023-01-17T20:23:57.158Z,85.87
2023-01-17T20:26:31.108Z,84.96
2023-01-17T20:29:00.516Z,84.68
2023-01-17T20:31:30.026Z,83.46
2023-01-17T20:33:58.099Z,84.51
2023-01-17T20:36:28.933Z,83.78
2023-01-17T20:38:57.130Z,83.60
2023-01-17T20:41:26.336Z,82.74
2023-01-17T20:43:56.292Z,84.05
2023-01-17T20:46:27.617Z,84.12
2023-01-17T20:48:57.660Z,84.33
2023-01-17T20:51:27.205Z,82.96
2023-01-17T20:53:57.123Z,82.71
2023-01-17T20:56:25.505Z,83.26
2023-01-17T20:58:54.117Z,81.15
2023-01-17T21:01:22.906Z,81.90
2023-01-17T21:03:54.049Z,82.15
2023-01-17T21:06:24.354Z,81.40
2023-01-17T21:08:52.981Z,81.37
2023-01-17T21:11:23.057Z,80.53
2023-01-17T21:13:51.389Z,81.31
2023-01-17T21:16:22.721Z,81.70
2023-01-17T21:18:53.719Z,81.75
2023-01-17T21:21:23.318Z,82.45
2023-01-17T21:23:55.690Z,82.24
2023-01-17T21:26:26.044Z,81.68
2023-01-17T21:28:54.958Z,82.43
2023-01-17T21:31:25.120Z,82.12
2023-01-17T21:33:56.220Z,82.14
2023-01-17T21:36:25.709Z,81.97
2023-01-17T21:38:56.952Z,83.92
2023-01-17T21:41:28.494Z,84.67
2023-01-17T21:43:58.424Z,84.42
2023-01-17T21:46:27.343Z,83.66
2023-01-17T21:48:57.669Z,83.14
2023-01-17T21:51:42.667Z,84.19
2023-01-17T21:54:10.680Z,84.87
2023-01-17T21:56:58.230Z,84.65
2023-01-17T21:59:26.110Z,84.23
2023-01-17T22:01:59.820Z,84.27
2023-01-17T22:04:31.831Z,85.26
2023-01-17T22:07:03.385Z,84.77
2023-01-17T22:09:31.255Z,83.95
2023-01-17T22:11:59.131Z,84.11
2023-01-17T22:14:27.011Z,83.86
2023-01-17T22:16:54.848Z,84.01
2023-01-17T22:19:22.634Z,84.50
2023-01-17T22:21:51.715Z,84.30
2023-01-17T22:24:19.413Z,84.57
2023-01-17T22:26:47.200Z,83.90
2023-01-17T22:29:18.304Z,83.85
2023-01-17T22:31:46.237Z,85.05
2023-01-17T22:34:14.179Z,85.13
2023-01-17T22:36:42.380Z,85.65
2023-01-17T22:39:12.155Z,84.54
2023-01-17T22:41:40.139Z,86.15
2023-01-17T22:44:08.436Z,85.53
2023-01-17T22:46:38.381Z,85.78
2023-01-17T22:49:08.286Z,85.23
2023-01-17T22:51:36.233Z,84.42
2023-01-17T22:54:03.933Z,85.46
2023-01-17T22:56:34.351Z,85.40
2023-01-17T22:59:02.578Z,85.29
2023-01-17T23:01:32.593Z,85.17
2023-01-17T23:04:02.744Z,85.08
2023-01-17T23:06:32.070Z,84.62
2023-01-17T23:09:01.643Z,85.08
2023-01-17T23:11:38.827Z,84.06
2023-01-17T23:14:08.836Z,84.67
2023-01-17T23:16:54.723Z,84.85
2023-01-17T23:19:25.430Z,84.64
2023-01-17T23:22:13.649Z,84.71
2023-01-17T23:24:43.951Z,86.12
2023-01-17T23:27:31.024Z,87.17
2023-01-17T23:30:01.177Z,86.20
2023-01-17T23:32:29.494Z,86.06
2023-01-17T23:34:57.258Z,86.95
2023-01-17T23:37:50.983Z,86.64
2023-01-17T23:40:19.328Z,87.34
2023-01-17T23:43:04.684Z,86.06
2023-01-17T23:45:36.976Z,85.48
2023-01-17T23:48:09.171Z,85.00
2023-01-17T23:50:37.751Z,85.13
2023-01-17T23:53:08.981Z,85.74
2023-01-17T23:55:38.261Z,85.51
2023-01-17T23:58:07.201Z,85.68
